METAR Data
IDs: Format: Raw Decoded Include TAF

Data at: 2153 UTC 18 Apr 2021

EFOU 182150Z AUTO 13001KT CAVOK M00/M03 Q1031